sensor_id;sensor_type;location;lat;lon;timestamp;temperature;humidity
25300;DHT22;13241;51.208;4.432;2023-06-26T00:01:31;24.70;99.90
25300;DHT22;13241;51.208;4.432;2023-06-26T00:03:59;24.70;99.90
25300;DHT22;13241;51.208;4.432;2023-06-26T00:06:26;24.60;99.90
25300;DHT22;13241;51.208;4.432;2023-06-26T00:08:54;24.60;99.90
25300;DHT22;13241;51.208;4.432;2023-06-26T00:11:21;24.50;99.90
25300;DHT22;13241;51.208;4.432;2023-06-26T00:13:48;24.40;99.90
25300;DHT22;13241;51.208;4.432;2023-06-26T00:16:19;24.30;99.90
25300;DHT22;13241;51.208;4.432;2023-06-26T00:18:46;24.30;99.90
25300;DHT22;13241;51.208;4.432;2023-06-26T00:21:12;24.20;99.90
25300;DHT22;13241;51.208;4.432;2023-06-26T00:23:41;24.20;99.90
25300;DHT22;13241;51.208;4.432;2023-06-26T00:26:09;24.00;99.90
25300;DHT22;13241;51.208;4.432;2023-06-26T00:28:40;24.00;99.90
25300;DHT22;13241;51.208;4.432;2023-06-26T00:31:08;24.00;99.90
25300;DHT22;13241;51.208;4.432;2023-06-26T00:33:35;23.90;99.90
25300;DHT22;13241;51.208;4.432;2023-06-26T00:36:02;23.90;99.90
25300;DHT22;13241;51.208;4.432;2023-06-26T00:38:30;23.90;99.90
25300;DHT22;13241;51.208;4.432;2023-06-26T00:40:57;24.00;99.90
25300;DHT22;13241;51.208;4.432;2023-06-26T00:43:24;23.80;99.90
25300;DHT22;13241;51.208;4.432;2023-06-26T00:45:51;23.80;99.90
25300;DHT22;13241;51.208;4.432;2023-06-26T00:48:19;23.70;99.90
25300;DHT22;13241;51.208;4.432;2023-06-26T00:50:46;23.80;99.90
25300;DHT22;13241;51.208;4.432;2023-06-26T00:53:13;23.60;99.90
25300;DHT22;13241;51.208;4.432;2023-06-26T00:55:40;23.60;99.90
25300;DHT22;13241;51.208;4.432;2023-06-26T00:58:09;23.50;99.90
25300;DHT22;13241;51.208;4.432;2023-06-26T01:00:36;23.60;99.90
25300;DHT22;13241;51.208;4.432;2023-06-26T01:03:05;23.40;99.90
25300;DHT22;13241;51.208;4.432;2023-06-26T01:05:32;23.40;99.90
25300;DHT22;13241;51.208;4.432;2023-06-26T01:07:59;23.30;99.90
25300;DHT22;13241;51.208;4.432;2023-06-26T01:10:26;23.20;99.90
25300;DHT22;13241;51.208;4.432;2023-06-26T01:12:55;23.20;99.90
25300;DHT22;13241;51.208;4.432;2023-06-26T01:15:23;23.10;99.90
25300;DHT22;13241;51.208;4.432;2023-06-26T01:17:54;23.10;99.90
25300;DHT22;13241;51.208;4.432;2023-06-26T01:20:22;23.00;99.90
25300;DHT22;13241;51.208;4.432;2023-06-26T01:25:38;23.10;99.90
25300;DHT22;13241;51.208;4.432;2023-06-26T01:28:13;23.10;99.90
25300;DHT22;13241;51.208;4.432;2023-06-26T01:30:44;23.00;99.90
25300;DHT22;13241;51.208;4.432;2023-06-26T01:33:12;23.10;99.90
25300;DHT22;13241;51.208;4.432;2023-06-26T01:35:40;23.20;99.90
25300;DHT22;13241;51.208;4.432;2023-06-26T01:38:16;23.10;99.90
25300;DHT22;13241;51.208;4.432;2023-06-26T01:40:43;23.10;99.90
25300;DHT22;13241;51.208;4.432;2023-06-26T01:46:32;22.90;99.90
25300;DHT22;13241;51.208;4.432;2023-06-26T01:49:09;22.80;99.90
25300;DHT22;13241;51.208;4.432;2023-06-26T01:54:37;22.70;99.90
25300;DHT22;13241;51.208;4.432;2023-06-26T01:57:06;22.70;99.90
25300;DHT22;13241;51.208;4.432;2023-06-26T01:59:34;22.60;99.90
25300;DHT22;13241;51.208;4.432;2023-06-26T02:02:01;22.50;99.90
25300;DHT22;13241;51.208;4.432;2023-06-26T02:04:28;22.50;99.90
25300;DHT22;13241;51.208;4.432;2023-06-26T02:06:56;22.50;99.90
25300;DHT22;13241;51.208;4.432;2023-06-26T02:09:23;22.40;99.90
25300;DHT22;13241;51.208;4.432;2023-06-26T02:11:50;22.40;99.90
25300;DHT22;13241;51.208;4.432;2023-06-26T02:14:17;22.30;99.90
25300;DHT22;13241;51.208;4.432;2023-06-26T02:16:44;22.40;99.90
25300;DHT22;13241;51.208;4.432;2023-06-26T02:19:11;22.40;99.90
25300;DHT22;13241;51.208;4.432;2023-06-26T02:21:38;22.30;99.90
25300;DHT22;13241;51.208;4.432;2023-06-26T02:24:05;22.20;99.90
25300;DHT22;13241;51.208;4.432;2023-06-26T02:26:32;22.20;99.90
25300;DHT22;13241;51.208;4.432;2023-06-26T02:28:59;22.20;99.90
25300;DHT22;13241;51.208;4.432;2023-06-26T02:31:26;22.20;99.90
25300;DHT22;13241;51.208;4.432;2023-06-26T02:33:55;22.10;99.90
25300;DHT22;13241;51.208;4.432;2023-06-26T02:36:21;22.10;99.90
25300;DHT22;13241;51.208;4.432;2023-06-26T02:38:48;22.10;99.90
25300;DHT22;13241;51.208;4.432;2023-06-26T02:41:15;22.10;99.90
25300;DHT22;13241;51.208;4.432;2023-06-26T02:43:42;22.20;99.90
25300;DHT22;13241;51.208;4.432;2023-06-26T02:46:09;22.20;99.90
25300;DHT22;13241;51.208;4.432;2023-06-26T02:48:36;22.30;99.90
25300;DHT22;13241;51.208;4.432;2023-06-26T02:51:03;22.20;99.90
25300;DHT22;13241;51.208;4.432;2023-06-26T02:53:31;22.00;99.90
25300;DHT22;13241;51.208;4.432;2023-06-26T02:55:58;21.90;99.90
25300;DHT22;13241;51.208;4.432;2023-06-26T02:58:25;21.90;99.90
25300;DHT22;13241;51.208;4.432;2023-06-26T03:00:53;22.00;99.90
25300;DHT22;13241;51.208;4.432;2023-06-26T03:03:20;21.70;99.90
25300;DHT22;13241;51.208;4.432;2023-06-26T03:05:47;21.70;99.90
25300;DHT22;13241;51.208;4.432;2023-06-26T03:08:14;21.70;99.90
25300;DHT22;13241;51.208;4.432;2023-06-26T03:10:41;21.60;99.90
25300;DHT22;13241;51.208;4.432;2023-06-26T03:13:10;21.60;99.90
25300;DHT22;13241;51.208;4.432;2023-06-26T03:15:37;21.50;99.90
25300;DHT22;13241;51.208;4.432;2023-06-26T03:18:05;21.60;99.90
25300;DHT22;13241;51.208;4.432;2023-06-26T03:20:32;21.30;99.90
25300;DHT22;13241;51.208;4.432;2023-06-26T03:22:59;21.40;99.90
25300;DHT22;13241;51.208;4.432;2023-06-26T03:25:26;21.30;99.90
25300;DHT22;13241;51.208;4.432;2023-06-26T03:28:09;21.30;99.90
25300;DHT22;13241;51.208;4.432;2023-06-26T03:30:36;21.10;99.90
25300;DHT22;13241;51.208;4.432;2023-06-26T03:33:05;21.20;99.90
25300;DHT22;13241;51.208;4.432;2023-06-26T03:35:33;21.20;99.90
25300;DHT22;13241;51.208;4.432;2023-06-26T03:38:01;21.10;99.90
25300;DHT22;13241;51.208;4.432;2023-06-26T03:40:28;21.20;99.90
25300;DHT22;13241;51.208;4.432;2023-06-26T03:42:55;21.20;99.90
25300;DHT22;13241;51.208;4.432;2023-06-26T03:45:23;21.10;99.90
25300;DHT22;13241;51.208;4.432;2023-06-26T03:47:50;21.20;99.90
25300;DHT22;13241;51.208;4.432;2023-06-26T03:50:18;21.10;99.90
25300;DHT22;13241;51.208;4.432;2023-06-26T03:52:45;21.00;99.90
25300;DHT22;13241;51.208;4.432;2023-06-26T03:55:13;21.00;99.90
25300;DHT22;13241;51.208;4.432;2023-06-26T03:57:40;20.90;99.90
25300;DHT22;13241;51.208;4.432;2023-06-26T04:00:09;20.90;99.90
25300;DHT22;13241;51.208;4.432;2023-06-26T04:02:40;20.90;99.90
25300;DHT22;13241;51.208;4.432;2023-06-26T04:05:08;20.90;99.90
25300;DHT22;13241;51.208;4.432;2023-06-26T04:07:35;20.90;99.90
25300;DHT22;13241;51.208;4.432;2023-06-26T04:10:05;20.90;99.90
25300;DHT22;13241;51.208;4.432;2023-06-26T04:12:33;20.80;99.90
25300;DHT22;13241;51.208;4.432;2023-06-26T04:15:00;20.70;99.90
25300;DHT22;13241;51.208;4.432;2023-06-26T04:17:27;20.80;99.90
25300;DHT22;13241;51.208;4.432;2023-06-26T04:19:53;20.80;99.90
25300;DHT22;13241;51.208;4.432;2023-06-26T04:22:20;20.90;99.90
25300;DHT22;13241;51.208;4.432;2023-06-26T04:24:47;20.80;99.90
25300;DHT22;13241;51.208;4.432;2023-06-26T04:27:14;20.80;99.90
25300;DHT22;13241;51.208;4.432;2023-06-26T04:29:41;20.90;99.90
25300;DHT22;13241;51.208;4.432;2023-06-26T04:32:08;20.70;99.90
25300;DHT22;13241;51.208;4.432;2023-06-26T04:34:35;20.60;99.90
25300;DHT22;13241;51.208;4.432;2023-06-26T04:37:03;20.70;99.90
25300;DHT22;13241;51.208;4.432;2023-06-26T04:39:32;20.70;99.90
25300;DHT22;13241;51.208;4.432;2023-06-26T04:41:59;20.60;99.90
25300;DHT22;13241;51.208;4.432;2023-06-26T04:44:26;20.60;99.90
25300;DHT22;13241;51.208;4.432;2023-06-26T04:46:54;20.60;99.90
25300;DHT22;13241;51.208;4.432;2023-06-26T04:49:21;20.70;99.90
25300;DHT22;13241;51.208;4.432;2023-06-26T04:51:51;20.70;99.90
25300;DHT22;13241;51.208;4.432;2023-06-26T04:54:18;20.70;99.90
25300;DHT22;13241;51.208;4.432;2023-06-26T04:56:45;20.70;99.90
25300;DHT22;13241;51.208;4.432;2023-06-26T04:59:14;20.80;99.90
25300;DHT22;13241;51.208;4.432;2023-06-26T05:01:41;20.80;99.90
25300;DHT22;13241;51.208;4.432;2023-06-26T05:04:09;20.90;99.90
25300;DHT22;13241;51.208;4.432;2023-06-26T05:06:38;21.00;99.90
25300;DHT22;13241;51.208;4.432;2023-06-26T05:09:05;21.00;99.90
25300;DHT22;13241;51.208;4.432;2023-06-26T05:11:32;21.10;99.90
25300;DHT22;13241;51.208;4.432;2023-06-26T05:13:59;21.30;99.90
25300;DHT22;13241;51.208;4.432;2023-06-26T05:16:27;21.00;99.90
25300;DHT22;13241;51.208;4.432;2023-06-26T05:18:54;21.00;99.90
25300;DHT22;13241;51.208;4.432;2023-06-26T05:21:21;21.10;99.90
25300;DHT22;13241;51.208;4.432;2023-06-26T05:23:49;21.20;99.90
25300;DHT22;13241;51.208;4.432;2023-06-26T05:26:17;21.20;99.90
25300;DHT22;13241;51.208;4.432;2023-06-26T05:28:44;21.30;99.90
25300;DHT22;13241;51.208;4.432;2023-06-26T05:31:15;21.40;99.90
25300;DHT22;13241;51.208;4.432;2023-06-26T05:33:44;21.40;99.90
25300;DHT22;13241;51.208;4.432;2023-06-26T05:36:13;21.40;99.90
25300;DHT22;13241;51.208;4.432;2023-06-26T05:38:42;21.40;99.90
25300;DHT22;13241;51.208;4.432;2023-06-26T05:41:09;21.40;99.90
25300;DHT22;13241;51.208;4.432;2023-06-26T05:43:36;21.40;99.90
25300;DHT22;13241;51.208;4.432;2023-06-26T05:46:03;21.50;99.90
25300;DHT22;13241;51.208;4.432;2023-06-26T05:48:30;21.60;99.90
25300;DHT22;13241;51.208;4.432;2023-06-26T05:50:57;21.80;99.90
25300;DHT22;13241;51.208;4.432;2023-06-26T05:53:24;21.90;99.90
25300;DHT22;13241;51.208;4.432;2023-06-26T05:55:52;21.80;99.90
25300;DHT22;13241;51.208;4.432;2023-06-26T05:58:20;22.10;99.90
25300;DHT22;13241;51.208;4.432;2023-06-26T06:00:48;22.20;99.90
25300;DHT22;13241;51.208;4.432;2023-06-26T06:03:15;22.00;99.90
25300;DHT22;13241;51.208;4.432;2023-06-26T06:05:42;22.20;99.90
25300;DHT22;13241;51.208;4.432;2023-06-26T06:08:09;22.30;99.90
25300;DHT22;13241;51.208;4.432;2023-06-26T06:10:35;22.50;99.90
25300;DHT22;13241;51.208;4.432;2023-06-26T06:13:03;22.40;99.90
25300;DHT22;13241;51.208;4.432;2023-06-26T06:15:30;22.50;99.90
25300;DHT22;13241;51.208;4.432;2023-06-26T06:17:57;22.50;99.90
25300;DHT22;13241;51.208;4.432;2023-06-26T06:20:24;22.80;99.90
25300;DHT22;13241;51.208;4.432;2023-06-26T06:22:51;22.70;99.90
25300;DHT22;13241;51.208;4.432;2023-06-26T06:25:18;22.70;99.90
25300;DHT22;13241;51.208;4.432;2023-06-26T06:27:45;22.70;99.90
25300;DHT22;13241;51.208;4.432;2023-06-26T06:30:12;22.60;99.90
25300;DHT22;13241;51.208;4.432;2023-06-26T06:32:39;22.90;99.90
25300;DHT22;13241;51.208;4.432;2023-06-26T06:35:07;23.00;99.90
25300;DHT22;13241;51.208;4.432;2023-06-26T06:37:39;23.10;99.90
25300;DHT22;13241;51.208;4.432;2023-06-26T06:40:08;23.30;99.90
25300;DHT22;13241;51.208;4.432;2023-06-26T06:42:35;23.40;99.90
25300;DHT22;13241;51.208;4.432;2023-06-26T06:45:03;23.30;99.90
25300;DHT22;13241;51.208;4.432;2023-06-26T06:47:31;23.10;99.90
25300;DHT22;13241;51.208;4.432;2023-06-26T06:49:58;22.90;99.90
25300;DHT22;13241;51.208;4.432;2023-06-26T06:52:28;23.20;99.90
25300;DHT22;13241;51.208;4.432;2023-06-26T06:55:05;23.30;99.90
25300;DHT22;13241;51.208;4.432;2023-06-26T06:57:40;23.40;99.90
25300;DHT22;13241;51.208;4.432;2023-06-26T07:00:11;23.20;99.90
25300;DHT22;13241;51.208;4.432;2023-06-26T07:02:46;23.20;99.90
25300;DHT22;13241;51.208;4.432;2023-06-26T07:05:16;23.00;99.90
25300;DHT22;13241;51.208;4.432;2023-06-26T07:07:46;23.10;99.90
25300;DHT22;13241;51.208;4.432;2023-06-26T07:10:14;23.10;99.90
25300;DHT22;13241;51.208;4.432;2023-06-26T07:12:41;23.30;99.90
25300;DHT22;13241;51.208;4.432;2023-06-26T07:15:08;23.50;99.90
25300;DHT22;13241;51.208;4.432;2023-06-26T07:17:35;23.50;99.90
25300;DHT22;13241;51.208;4.432;2023-06-26T07:20:02;23.80;99.90
25300;DHT22;13241;51.208;4.432;2023-06-26T07:22:37;23.90;99.90
25300;DHT22;13241;51.208;4.432;2023-06-26T07:25:04;24.00;99.90
25300;DHT22;13241;51.208;4.432;2023-06-26T07:27:39;23.80;99.90
25300;DHT22;13241;51.208;4.432;2023-06-26T07:30:07;23.50;99.90
25300;DHT22;13241;51.208;4.432;2023-06-26T07:32:37;23.30;99.90
25300;DHT22;13241;51.208;4.432;2023-06-26T07:35:05;23.50;99.90
25300;DHT22;13241;51.208;4.432;2023-06-26T07:37:32;23.80;99.90
25300;DHT22;13241;51.208;4.432;2023-06-26T07:39:58;23.90;99.90
25300;DHT22;13241;51.208;4.432;2023-06-26T07:42:25;24.10;99.90
25300;DHT22;13241;51.208;4.432;2023-06-26T07:44:52;24.20;99.90
25300;DHT22;13241;51.208;4.432;2023-06-26T07:47:19;24.20;99.90
25300;DHT22;13241;51.208;4.432;2023-06-26T07:49:46;24.30;99.90
25300;DHT22;13241;51.208;4.432;2023-06-26T07:52:12;24.20;99.90
25300;DHT22;13241;51.208;4.432;2023-06-26T07:54:41;24.20;99.90
25300;DHT22;13241;51.208;4.432;2023-06-26T07:57:08;24.40;99.90
25300;DHT22;13241;51.208;4.432;2023-06-26T07:59:35;24.50;99.90
25300;DHT22;13241;51.208;4.432;2023-06-26T08:02:03;24.40;99.90
25300;DHT22;13241;51.208;4.432;2023-06-26T08:04:30;24.60;99.90
25300;DHT22;13241;51.208;4.432;2023-06-26T08:07:01;24.70;99.90
25300;DHT22;13241;51.208;4.432;2023-06-26T08:09:29;24.70;99.90
25300;DHT22;13241;51.208;4.432;2023-06-26T08:11:57;24.70;99.90
25300;DHT22;13241;51.208;4.432;2023-06-26T08:14:24;24.60;99.90
25300;DHT22;13241;51.208;4.432;2023-06-26T08:16:51;24.40;99.90
25300;DHT22;13241;51.208;4.432;2023-06-26T08:19:19;24.30;99.90
25300;DHT22;13241;51.208;4.432;2023-06-26T08:21:47;24.50;99.90
25300;DHT22;13241;51.208;4.432;2023-06-26T08:24:14;24.70;99.90
25300;DHT22;13241;51.208;4.432;2023-06-26T08:26:46;24.90;99.90
25300;DHT22;13241;51.208;4.432;2023-06-26T08:29:14;24.90;99.90
25300;DHT22;13241;51.208;4.432;2023-06-26T08:31:42;25.10;99.90
25300;DHT22;13241;51.208;4.432;2023-06-26T08:34:09;25.30;99.90
25300;DHT22;13241;51.208;4.432;2023-06-26T08:36:36;25.30;99.90
25300;DHT22;13241;51.208;4.432;2023-06-26T08:39:03;25.30;99.90
25300;DHT22;13241;51.208;4.432;2023-06-26T08:41:32;25.40;99.90
25300;DHT22;13241;51.208;4.432;2023-06-26T08:43:59;25.30;99.90
25300;DHT22;13241;51.208;4.432;2023-06-26T08:46:26;25.20;99.90
25300;DHT22;13241;51.208;4.432;2023-06-26T08:48:56;25.40;99.90
25300;DHT22;13241;51.208;4.432;2023-06-26T08:51:25;25.40;99.90
25300;DHT22;13241;51.208;4.432;2023-06-26T08:53:58;25.10;99.90
25300;DHT22;13241;51.208;4.432;2023-06-26T08:56:35;25.20;99.90
25300;DHT22;13241;51.208;4.432;2023-06-26T08:59:03;25.30;99.90
25300;DHT22;13241;51.208;4.432;2023-06-26T09:01:31;25.50;99.90
25300;DHT22;13241;51.208;4.432;2023-06-26T09:03:58;25.30;99.90
25300;DHT22;13241;51.208;4.432;2023-06-26T09:06:26;25.50;99.90
25300;DHT22;13241;51.208;4.432;2023-06-26T09:08:53;25.50;99.90
25300;DHT22;13241;51.208;4.432;2023-06-26T09:11:20;25.60;99.90
25300;DHT22;13241;51.208;4.432;2023-06-26T09:13:47;25.40;99.90
25300;DHT22;13241;51.208;4.432;2023-06-26T09:16:14;25.40;99.90
25300;DHT22;13241;51.208;4.432;2023-06-26T09:18:42;25.50;99.90
25300;DHT22;13241;51.208;4.432;2023-06-26T09:21:12;25.80;99.90
25300;DHT22;13241;51.208;4.432;2023-06-26T09:23:41;26.40;99.90
25300;DHT22;13241;51.208;4.432;2023-06-26T09:26:08;26.20;99.90
25300;DHT22;13241;51.208;4.432;2023-06-26T09:28:35;26.00;99.90
25300;DHT22;13241;51.208;4.432;2023-06-26T09:31:07;26.10;99.90
25300;DHT22;13241;51.208;4.432;2023-06-26T09:33:37;26.00;99.90
25300;DHT22;13241;51.208;4.432;2023-06-26T09:36:05;25.80;99.90
25300;DHT22;13241;51.208;4.432;2023-06-26T09:38:34;25.40;99.90
25300;DHT22;13241;51.208;4.432;2023-06-26T09:41:03;25.30;99.90
25300;DHT22;13241;51.208;4.432;2023-06-26T09:43:30;25.50;99.90
25300;DHT22;13241;51.208;4.432;2023-06-26T09:46:00;25.50;99.90
25300;DHT22;13241;51.208;4.432;2023-06-26T09:48:28;25.60;99.90
25300;DHT22;13241;51.208;4.432;2023-06-26T09:50:55;25.70;99.90
25300;DHT22;13241;51.208;4.432;2023-06-26T09:53:38;25.70;99.90
25300;DHT22;13241;51.208;4.432;2023-06-26T09:56:06;25.70;99.90
25300;DHT22;13241;51.208;4.432;2023-06-26T09:58:36;25.80;99.90
25300;DHT22;13241;51.208;4.432;2023-06-26T10:01:03;25.90;99.90
25300;DHT22;13241;51.208;4.432;2023-06-26T10:03:30;26.20;99.90
25300;DHT22;13241;51.208;4.432;2023-06-26T10:05:58;26.30;99.90
25300;DHT22;13241;51.208;4.432;2023-06-26T10:08:28;26.50;99.90
25300;DHT22;13241;51.208;4.432;2023-06-26T10:10:57;26.60;99.90
25300;DHT22;13241;51.208;4.432;2023-06-26T10:13:29;26.60;99.90
25300;DHT22;13241;51.208;4.432;2023-06-26T10:15:59;26.50;99.50
25300;DHT22;13241;51.208;4.432;2023-06-26T10:18:27;26.20;99.90
25300;DHT22;13241;51.208;4.432;2023-06-26T10:20:57;26.40;99.90
25300;DHT22;13241;51.208;4.432;2023-06-26T10:23:27;26.50;99.90
25300;DHT22;13241;51.208;4.432;2023-06-26T10:25:55;26.80;99.90
25300;DHT22;13241;51.208;4.432;2023-06-26T10:28:26;27.10;99.90
25300;DHT22;13241;51.208;4.432;2023-06-26T10:30:54;27.20;98.80
25300;DHT22;13241;51.208;4.432;2023-06-26T10:33:22;27.30;98.50
25300;DHT22;13241;51.208;4.432;2023-06-26T10:35:49;27.30;98.50
25300;DHT22;13241;51.208;4.432;2023-06-26T10:38:16;27.00;97.70
25300;DHT22;13241;51.208;4.432;2023-06-26T10:40:47;26.70;98.70
25300;DHT22;13241;51.208;4.432;2023-06-26T10:43:16;26.60;99.10
25300;DHT22;13241;51.208;4.432;2023-06-26T10:45:48;26.40;99.00
25300;DHT22;13241;51.208;4.432;2023-06-26T10:48:20;26.60;98.30
25300;DHT22;13241;51.208;4.432;2023-06-26T10:50:48;26.40;98.90
25300;DHT22;13241;51.208;4.432;2023-06-26T10:53:21;26.30;97.40
25300;DHT22;13241;51.208;4.432;2023-06-26T10:56:02;26.40;98.10
25300;DHT22;13241;51.208;4.432;2023-06-26T11:04:00;26.50;97.30
25300;DHT22;13241;51.208;4.432;2023-06-26T11:06:30;26.70;97.70
25300;DHT22;13241;51.208;4.432;2023-06-26T11:09:08;26.90;96.10
25300;DHT22;13241;51.208;4.432;2023-06-26T11:14:22;27.00;96.30
25300;DHT22;13241;51.208;4.432;2023-06-26T11:16:50;27.30;96.00
25300;DHT22;13241;51.208;4.432;2023-06-26T11:19:18;27.50;96.80
25300;DHT22;13241;51.208;4.432;2023-06-26T11:21:46;27.30;97.80
25300;DHT22;13241;51.208;4.432;2023-06-26T11:24:13;27.10;98.60
25300;DHT22;13241;51.208;4.432;2023-06-26T11:26:42;26.80;98.70
25300;DHT22;13241;51.208;4.432;2023-06-26T11:29:10;26.80;99.10
25300;DHT22;13241;51.208;4.432;2023-06-26T11:31:39;27.20;98.80
25300;DHT22;13241;51.208;4.432;2023-06-26T11:34:08;27.10;99.50
25300;DHT22;13241;51.208;4.432;2023-06-26T11:36:38;26.70;99.90
25300;DHT22;13241;51.208;4.432;2023-06-26T11:39:05;26.50;99.90
25300;DHT22;13241;51.208;4.432;2023-06-26T11:41:34;26.50;99.90
25300;DHT22;13241;51.208;4.432;2023-06-26T11:44:02;26.20;99.90
25300;DHT22;13241;51.208;4.432;2023-06-26T11:46:31;26.20;99.90
25300;DHT22;13241;51.208;4.432;2023-06-26T11:48:58;26.20;99.90
25300;DHT22;13241;51.208;4.432;2023-06-26T11:51:29;26.70;99.90
25300;DHT22;13241;51.208;4.432;2023-06-26T11:53:56;26.90;99.70
25300;DHT22;13241;51.208;4.432;2023-06-26T11:56:23;26.90;97.80
25300;DHT22;13241;51.208;4.432;2023-06-26T11:58:57;26.70;98.40
25300;DHT22;13241;51.208;4.432;2023-06-26T12:01:35;26.80;98.50
25300;DHT22;13241;51.208;4.432;2023-06-26T12:04:04;26.70;97.80
25300;DHT22;13241;51.208;4.432;2023-06-26T12:06:34;26.60;98.50
25300;DHT22;13241;51.208;4.432;2023-06-26T12:09:04;26.40;99.00
25300;DHT22;13241;51.208;4.432;2023-06-26T12:11:34;26.40;98.30
25300;DHT22;13241;51.208;4.432;2023-06-26T12:14:02;26.60;97.90
25300;DHT22;13241;51.208;4.432;2023-06-26T12:16:30;26.70;98.20
25300;DHT22;13241;51.208;4.432;2023-06-26T12:18:59;26.80;97.80
25300;DHT22;13241;51.208;4.432;2023-06-26T12:21:33;27.00;97.20
25300;DHT22;13241;51.208;4.432;2023-06-26T12:24:18;27.00;97.10
25300;DHT22;13241;51.208;4.432;2023-06-26T12:26:49;27.20;96.90
25300;DHT22;13241;51.208;4.432;2023-06-26T12:29:18;27.20;96.60
25300;DHT22;13241;51.208;4.432;2023-06-26T12:31:52;26.90;96.90
25300;DHT22;13241;51.208;4.432;2023-06-26T12:34:26;26.50;97.30
25300;DHT22;13241;51.208;4.432;2023-06-26T12:36:53;26.10;97.50
25300;DHT22;13241;51.208;4.432;2023-06-26T12:39:21;25.90;97.70
25300;DHT22;13241;51.208;4.432;2023-06-26T12:41:51;25.90;98.00
25300;DHT22;13241;51.208;4.432;2023-06-26T12:44:28;26.30;97.50
25300;DHT22;13241;51.208;4.432;2023-06-26T12:46:57;26.60;96.70
25300;DHT22;13241;51.208;4.432;2023-06-26T12:49:34;26.50;96.70
25300;DHT22;13241;51.208;4.432;2023-06-26T12:52:06;26.70;97.10
25300;DHT22;13241;51.208;4.432;2023-06-26T12:54:34;27.10;96.40
25300;DHT22;13241;51.208;4.432;2023-06-26T12:57:02;27.30;94.80
25300;DHT22;13241;51.208;4.432;2023-06-26T12:59:34;27.20;94.90
25300;DHT22;13241;51.208;4.432;2023-06-26T13:02:01;27.10;95.70
25300;DHT22;13241;51.208;4.432;2023-06-26T13:04:29;27.10;96.20
25300;DHT22;13241;51.208;4.432;2023-06-26T13:06:57;27.10;96.40
25300;DHT22;13241;51.208;4.432;2023-06-26T13:09:24;27.40;95.40
25300;DHT22;13241;51.208;4.432;2023-06-26T13:11:52;27.50;94.90
25300;DHT22;13241;51.208;4.432;2023-06-26T13:14:20;27.60;95.00
25300;DHT22;13241;51.208;4.432;2023-06-26T13:16:47;27.40;95.20
25300;DHT22;13241;51.208;4.432;2023-06-26T13:19:15;27.40;95.30
25300;DHT22;13241;51.208;4.432;2023-06-26T13:21:41;27.40;94.40
25300;DHT22;13241;51.208;4.432;2023-06-26T13:24:09;27.50;93.80
25300;DHT22;13241;51.208;4.432;2023-06-26T13:26:36;27.30;94.00
25300;DHT22;13241;51.208;4.432;2023-06-26T13:29:04;27.30;95.40
25300;DHT22;13241;51.208;4.432;2023-06-26T13:31:32;27.10;96.40
25300;DHT22;13241;51.208;4.432;2023-06-26T13:34:00;27.00;96.80
25300;DHT22;13241;51.208;4.432;2023-06-26T13:36:27;27.80;96.80
25300;DHT22;13241;51.208;4.432;2023-06-26T13:38:54;28.90;94.20
25300;DHT22;13241;51.208;4.432;2023-06-26T13:41:25;29.70;94.10
25300;DHT22;13241;51.208;4.432;2023-06-26T13:43:52;30.00;93.40
25300;DHT22;13241;51.208;4.432;2023-06-26T13:46:23;30.10;93.10
25300;DHT22;13241;51.208;4.432;2023-06-26T13:48:50;29.60;94.00
25300;DHT22;13241;51.208;4.432;2023-06-26T13:51:18;29.50;93.80
25300;DHT22;13241;51.208;4.432;2023-06-26T13:53:45;29.30;93.80
25300;DHT22;13241;51.208;4.432;2023-06-26T13:56:12;29.30;93.20
25300;DHT22;13241;51.208;4.432;2023-06-26T13:58:39;29.70;93.00
25300;DHT22;13241;51.208;4.432;2023-06-26T14:01:06;29.90;92.90
25300;DHT22;13241;51.208;4.432;2023-06-26T14:03:33;30.10;92.90
25300;DHT22;13241;51.208;4.432;2023-06-26T14:06:00;29.90;92.30
25300;DHT22;13241;51.208;4.432;2023-06-26T14:08:27;29.20;93.20
25300;DHT22;13241;51.208;4.432;2023-06-26T14:10:54;29.00;93.30
25300;DHT22;13241;51.208;4.432;2023-06-26T14:13:21;29.10;93.40
25300;DHT22;13241;51.208;4.432;2023-06-26T14:15:49;29.60;92.40
25300;DHT22;13241;51.208;4.432;2023-06-26T14:18:20;30.30;91.80
25300;DHT22;13241;51.208;4.432;2023-06-26T14:20:50;30.30;91.00
25300;DHT22;13241;51.208;4.432;2023-06-26T14:23:17;29.90;92.20
25300;DHT22;13241;51.208;4.432;2023-06-26T14:25:44;29.70;91.20
25300;DHT22;13241;51.208;4.432;2023-06-26T14:28:15;29.30;91.50
25300;DHT22;13241;51.208;4.432;2023-06-26T14:30:42;29.50;91.10
25300;DHT22;13241;51.208;4.432;2023-06-26T14:33:10;29.60;90.70
25300;DHT22;13241;51.208;4.432;2023-06-26T14:35:36;29.90;90.50
25300;DHT22;13241;51.208;4.432;2023-06-26T14:38:03;29.60;90.80
25300;DHT22;13241;51.208;4.432;2023-06-26T14:40:31;29.80;90.50
25300;DHT22;13241;51.208;4.432;2023-06-26T14:42:58;29.60;90.60
25300;DHT22;13241;51.208;4.432;2023-06-26T14:45:26;29.90;90.00
25300;DHT22;13241;51.208;4.432;2023-06-26T14:47:53;29.70;89.50
25300;DHT22;13241;51.208;4.432;2023-06-26T14:50:20;29.30;90.00
25300;DHT22;13241;51.208;4.432;2023-06-26T14:52:47;29.10;89.40
25300;DHT22;13241;51.208;4.432;2023-06-26T14:55:14;29.00;89.50
25300;DHT22;13241;51.208;4.432;2023-06-26T14:57:41;28.30;89.60
25300;DHT22;13241;51.208;4.432;2023-06-26T15:00:09;27.70;90.10
25300;DHT22;13241;51.208;4.432;2023-06-26T15:02:36;27.20;90.30
25300;DHT22;13241;51.208;4.432;2023-06-26T15:05:03;27.00;90.50
25300;DHT22;13241;51.208;4.432;2023-06-26T15:07:30;27.50;90.30
25300;DHT22;13241;51.208;4.432;2023-06-26T15:09:57;28.20;87.80
25300;DHT22;13241;51.208;4.432;2023-06-26T15:12:24;28.50;87.00
25300;DHT22;13241;51.208;4.432;2023-06-26T15:14:51;28.70;86.40
25300;DHT22;13241;51.208;4.432;2023-06-26T15:17:18;29.10;84.60
25300;DHT22;13241;51.208;4.432;2023-06-26T15:19:45;29.10;83.70
25300;DHT22;13241;51.208;4.432;2023-06-26T15:22:12;29.10;84.20
25300;DHT22;13241;51.208;4.432;2023-06-26T15:24:41;29.10;84.50
25300;DHT22;13241;51.208;4.432;2023-06-26T15:27:08;29.10;85.30
25300;DHT22;13241;51.208;4.432;2023-06-26T15:29:35;28.80;84.00
25300;DHT22;13241;51.208;4.432;2023-06-26T15:32:02;28.60;84.20
25300;DHT22;13241;51.208;4.432;2023-06-26T15:34:29;28.80;83.90
25300;DHT22;13241;51.208;4.432;2023-06-26T15:36:56;28.60;84.40
25300;DHT22;13241;51.208;4.432;2023-06-26T15:39:23;28.30;84.40
25300;DHT22;13241;51.208;4.432;2023-06-26T15:41:50;28.20;84.80
25300;DHT22;13241;51.208;4.432;2023-06-26T15:44:17;28.10;85.00
25300;DHT22;13241;51.208;4.432;2023-06-26T15:46:44;27.80;84.20
25300;DHT22;13241;51.208;4.432;2023-06-26T15:49:11;27.30;84.80
25300;DHT22;13241;51.208;4.432;2023-06-26T15:51:38;26.40;86.40
25300;DHT22;13241;51.208;4.432;2023-06-26T15:54:05;26.10;88.00